Time;durP1;ratioP1;P1;durP2;ratioP2;P2;SDS_P1;SDS_P2;PMS_P1;PMS_P2;Temp;Humidity;BMP_temperature;BMP_pressure;BME280_temperature;BME280_humidity;BME280_pressure;Samples;Min_cycle;Max_cycle;Signal;HPM_P1;HPM_P2
2022/10/27 05:18:33;;;;;;;41.58;22.23;;;;;;;10.94;100.00;101467.59;6657662;26;159286;-88
2022/10/27 05:21:39;;;;;;;45.35;23.38;;;;;;;10.94;100.00;101466.72;6619581;26;33087;-89
2022/10/27 05:28:25;;;;;;;39.28;23.77;;;;;;;11.01;100.00;101479.75;6670115;26;20035;-91
2022/10/27 05:31:28;;;;;;;36.90;23.23;;;;;;;11.03;100.00;101483.22;6669839;26;34520;-90
2022/10/27 05:34:30;;;;;;;41.08;23.77;;;;;;;11.03;100.00;101482.34;6648913;26;33327;-87
2022/10/27 05:37:33;;;;;;;42.95;24.50;;;;;;;10.95;100.00;101492.38;6648998;26;32108;-89
2022/10/27 05:40:36;;;;;;;43.78;24.23;;;;;;;11.07;100.00;101488.44;6663359;26;33786;-90
2022/10/27 05:43:40;;;;;;;41.33;24.77;;;;;;;11.05;100.00;101488.47;6667368;26;33768;-90
2022/10/27 05:46:44;;;;;;;42.33;25.85;;;;;;;11.08;100.00;101504.31;6667448;26;34024;-91
2022/10/27 05:49:47;;;;;;;40.47;24.30;;;;;;;11.08;100.00;101509.62;6647032;26;32767;-90
2022/10/27 05:52:49;;;;;;;40.42;24.52;;;;;;;11.20;100.00;101508.34;6662861;26;33595;-90
2022/10/27 05:55:53;;;;;;;42.80;24.80;;;;;;;11.24;100.00;101502.00;6662636;26;33696;-90
2022/10/27 05:58:56;;;;;;;42.53;23.45;;;;;;;11.38;100.00;101501.53;6665498;26;34001;-90
2022/10/27 06:01:59;;;;;;;41.35;24.40;;;;;;;11.33;100.00;101508.78;6667728;26;34027;-91
2022/10/27 06:08:41;;;;;;;39.47;22.70;;;;;;;11.29;100.00;101517.78;6662705;26;20091;-92
2022/10/27 06:42:36;;;;;;;35.22;20.52;;;;;;;11.66;100.00;101547.53;6650319;26;20078;-90
2022/10/27 06:45:57;;;;;;;35.03;21.02;;;;;;;11.68;100.00;101557.16;6663059;26;34276;-91
2022/10/27 06:49:03;;;;;;;34.03;20.40;;;;;;;11.79;100.00;101564.75;6642565;26;32938;-89
2022/10/27 07:18:49;;;;;;;31.45;20.27;;;;;;;12.11;100.00;101585.78;6663367;26;20045;-92
2022/10/27 07:21:52;;;;;;;34.15;20.12;;;;;;;12.26;100.00;101602.97;6663037;26;33780;-91
2022/10/27 07:28:30;;;;;;;34.13;20.92;;;;;;;12.35;100.00;101607.09;6599944;26;32522;-89
2022/10/27 07:39:13;;;;;;;34.97;21.25;;;;;;;12.31;100.00;101619.66;6661931;26;20074;-89
2022/10/27 07:42:16;;;;;;;34.40;20.45;;;;;;;12.28;100.00;101627.75;6664488;26;35313;-89
2022/10/27 07:45:21;;;;;;;30.40;19.40;;;;;;;12.30;100.00;101635.66;6663614;26;34967;-89
2022/10/27 07:59:20;;;;;;;29.35;17.87;;;;;;;12.53;100.00;101638.34;6629800;26;20062;-89
2022/10/27 08:02:22;;;;;;;30.73;18.25;;;;;;;12.58;100.00;101642.63;6649870;26;33873;-91
2022/10/27 08:05:26;;;;;;;25.98;17.55;;;;;;;12.53;100.00;101650.78;6663473;26;33814;-88
2022/10/27 08:08:30;;;;;;;28.27;18.37;;;;;;;12.52;100.00;101654.34;6670716;26;33665;-86
2022/10/27 08:11:33;;;;;;;29.37;18.77;;;;;;;12.59;100.00;101661.22;6655961;26;32467;-87
2022/10/27 08:14:35;;;;;;;30.75;19.33;;;;;;;12.47;100.00;101667.84;6680625;26;33970;-87
2022/10/27 08:17:39;;;;;;;30.20;19.27;;;;;;;12.40;100.00;101669.88;6680266;26;34275;-87
2022/10/27 08:20:47;;;;;;;36.15;19.33;;;;;;;12.50;100.00;101670.41;6662745;26;34774;-90
2022/10/27 08:23:53;;;;;;;33.28;18.95;;;;;;;12.47;100.00;101677.63;6663832;26;33610;-89
2022/10/27 08:27:12;;;;;;;34.50;18.65;;;;;;;12.61;100.00;101675.31;6660814;26;34111;-90
2022/10/27 08:30:15;;;;;;;29.58;19.62;;;;;;;12.63;100.00;101676.12;6671668;26;33952;-90
2022/10/27 08:33:19;;;;;;;31.80;20.48;;;;;;;12.69;100.00;101676.81;6663892;26;34715;-90
2022/10/27 08:44:14;;;;;;;32.45;20.17;;;;;;;12.70;100.00;101673.22;6667456;26;20547;-87
2022/10/27 08:47:23;;;;;;;30.58;19.45;;;;;;;12.69;100.00;101675.03;6659951;26;34389;-90
2022/10/27 08:50:32;;;;;;;29.98;19.80;;;;;;;12.75;100.00;101677.47;6662645;26;34440;-91
2022/10/27 08:53:37;;;;;;;31.23;19.12;;;;;;;12.92;100.00;101675.94;6650116;26;32893;-92
2022/10/27 09:00:33;;;;;;;30.08;20.35;;;;;;;12.92;100.00;101673.25;6659259;26;20052;-90
2022/10/27 09:03:52;;;;;;;32.03;20.62;;;;;;;12.89;100.00;101676.06;6667018;26;33601;-90
2022/10/27 11:49:57;;;;;;;40.85;24.87;;;;;;;14.24;100.00;101669.69;6654595;26;20063;-88
